Latest Weather Observations for Nerriga

IDN60801

Issued at 9:02 am EDT Monday 30 March 2015 (issued every 30 minutes, with the page automatically refreshed every 10 minutes)

About weather observations | Map of weather stations | Latest weather observations for NSW | Other Formats
Station Details ID: 069128 Name: NERRIGA AWS Lat: -35.11 Lon: 150.08 Height: 622.0 m
Data from the previous 72 hours. | See also: Recent months at Nerriga
Date/Time
EDT
Temp
°C
App
Temp
°C
Dew
Point
Rel
Hum
%
Delta-T
°C
Wind Press
QNH
hPa
Press
MSL
hPa
Rain
since 9 am
mm
Dir
 
Spd
km/h
Gust
km/h
Spd
kts
Gust
kts
30/09:00am 7.9 7.4 7.8 99 0.0 CALM 0 0 0 0 1026.6 1024.8 0.0
30/08:30am 7.2 6.1 7.1 99 0.0 SSW 2 4 1 2 1026.4 1024.6 0.0
30/08:00am 6.6 5.4 6.5 99 0.0 SSW 2 4 1 2 1026.2 1024.4 0.0
30/07:30am 6.1 5.2 6.0 99 0.0 CALM 0 0 0 0 1026.0 1024.2 0.0
30/07:00am 6.1 4.4 6.0 99 0.0 SSW 4 6 2 3 1025.6 1023.7 0.0
30/06:30am 6.4 4.8 6.3 99 0.0 SSW 4 6 2 3 1025.1 1023.3 0.0
30/06:00am 6.0 4.3 5.9 99 0.0 SSE 4 7 2 4 1024.5 1022.6 0.0
30/05:30am 5.5 3.3 5.2 98 0.1 SSE 6 7 3 4 1024.2 1022.3 0.0
30/05:00am 5.6 3.8 5.3 98 0.1 SSE 4 6 2 3 1024.1 1022.2 0.0
30/04:30am 5.9 4.1 5.6 98 0.1 SSE 4 6 2 3 1024.0 1022.1 0.0
30/04:00am 6.6 5.8 6.5 99 0.0 CALM 0 0 0 0 1024.0 1022.1 0.0
30/03:30am 6.4 4.2 6.3 99 0.0 SSE 7 9 4 5 1024.0 1022.1 0.0
30/03:00am 6.3 4.2 5.9 97 0.2 SSE 6 7 3 4 1024.1 1022.2 0.0
30/02:30am 6.4 5.0 5.7 95 0.3 SSE 2 6 1 3 1024.3 1022.4 0.0
30/02:00am 7.6 7.0 7.2 97 0.2 CALM 0 0 0 0 1024.6 1022.8 0.0
30/01:30am 8.4 7.9 8.0 97 0.2 CALM 0 0 0 0 1024.5 1022.6 0.0
30/01:00am 8.8 8.4 8.2 96 0.3 CALM 0 0 0 0 1024.6 1022.8 0.0
30/12:30am 9.1 8.0 8.5 96 0.3 SSE 4 7 2 4 1024.5 1022.6 0.0
30/12:00am 8.9 7.4 8.3 96 0.3 SE 6 7 3 4 1024.5 1022.6 0.0
 
Date/Time
EDT
Temp
°C
App
Temp
°C
Dew
Point
Rel
Hum
%
Delta-T
°C
Wind Press
QNH
hPa
Press
MSL
hPa
Rain
since 9 am
mm
Dir
 
Spd
km/h
Gust
km/h
Spd
kts
Gust
kts
29/11:30pm 9.8 8.8 9.0 95 0.4 ESE 4 6 2 3 1024.7 1022.9 0.0
29/11:00pm 9.9 8.9 9.0 94 0.5 ESE 4 6 2 3 1024.8 1023.0 0.0
29/10:30pm 10.7 10.7 9.9 95 0.4 CALM 0 0 0 0 1025.0 1023.2 0.0
29/10:00pm 11.1 10.6 10.6 97 0.3 E 4 6 2 3 1024.9 1023.1 0.0
29/09:30pm 10.7 9.9 9.5 92 0.6 ESE 4 6 2 3 1024.5 1022.6 0.0
29/09:00pm 11.0 9.9 9.8 92 0.6 ESE 6 7 3 4 1024.2 1022.3 0.0
29/08:30pm 12.1 11.1 10.2 88 1.0 E 6 6 3 3 1023.9 1022.0 0.0
29/08:00pm 13.2 12.5 10.2 82 1.6 E 4 6 2 3 1023.6 1021.8 0.0
29/07:30pm 14.6 13.6 10.4 76 2.3 E 6 7 3 4 1023.3 1021.5 0.0
29/07:00pm 15.6 13.4 10.8 73 2.6 E 13 17 7 9 1022.6 1020.7 0.0
29/06:30pm 16.9 14.6 10.5 66 3.5 E 13 15 7 8 1022.4 1020.5 0.0
29/06:00pm 17.6 14.8 10.0 61 4.1 ENE 15 20 8 11 1022.2 1020.3 0.0
29/05:30pm 18.6 15.7 9.7 56 4.9 E 15 20 8 11 1022.2 1020.3 0.0
29/05:00pm 20.5 18.1 4.5 35 8.0 N 6 11 3 6 1021.8 1020.0 0.0
29/04:30pm 21.4 19.4 2.2 28 9.3 W 2 4 1 2 1021.9 1020.1 0.0
29/04:00pm 21.1 18.0 1.4 27 9.3 W 7 11 4 6 1022.1 1020.2 0.0
29/03:30pm 21.5 18.5 2.2 28 9.3 W 7 13 4 7 1022.3 1020.4 0.0
29/03:00pm 21.5 17.9 2.7 29 9.1 SSW 11 15 6 8 1022.3 1020.4 0.0
29/02:30pm 21.6 18.1 1.3 26 9.6 SW 9 19 5 10 1022.6 1020.7 0.0
29/02:00pm 21.9 18.6 2.6 28 9.4 W 9 19 5 10 1022.8 1020.9 0.0
29/01:30pm 21.7 17.2 1.9 27 9.5 W 15 22 8 12 1022.8 1020.9 0.0
29/01:00pm 21.9 18.3 4.9 33 8.6 WNW 13 24 7 13 1023.2 1021.4 0.0
29/12:30pm 20.6 18.0 7.6 43 6.9 WNW 11 19 6 10 1023.5 1021.7 0.0
29/12:00pm 19.1 15.7 7.8 48 5.9 WNW 15 24 8 13 1024.0 1022.1 0.0
29/11:30am 17.8 16.2 8.6 55 4.9 NW 7 11 4 6 1024.1 1022.2 0.0
29/11:00am 16.5 14.2 10.4 67 3.3 N 13 19 7 10 1024.2 1022.3 0.0
29/10:30am 12.0 10.7 9.9 87 1.1 NNW 7 9 4 5 1024.3 1022.4 0.0
29/10:00am 10.6 10.4 10.6 100 0.0 ENE 2 4 1 2 1024.4 1022.5 0.0
29/09:30am 9.1 8.5 9.1 100 0.0 ENE 2 4 1 2 1024.3 1022.4 0.0
29/09:00am 7.7 7.2 7.7 100 0.0 CALM 0 0 0 0 1024.1 1022.2 0.0
29/08:30am 7.0 6.3 7.0 100 0.0 CALM 0 0 0 0 1023.9 1022.0 0.0
29/08:00am 5.8 4.8 5.7 99 0.0 CALM 0 0 0 0 1023.6 1021.8 0.0
29/07:30am 5.5 4.5 5.4 99 0.0 CALM 0 0 0 0 1023.3 1021.5 0.0
29/07:00am 5.4 4.3 5.3 99 0.0 CALM 0 0 0 0 1023.0 1021.1 0.0
29/06:30am 5.1 3.9 4.8 98 0.1 CALM 0 0 0 0 1022.9 1021.0 0.0
29/06:00am 5.8 4.8 5.7 99 0.0 CALM 0 0 0 0 1022.6 1020.7 0.0
29/05:30am 5.2 3.3 4.9 98 0.1 ESE 4 4 2 2 1022.4 1020.5 0.0
29/05:00am 6.4 4.7 6.1 98 0.1 ESE 4 6 2 3 1022.5 1020.6 0.0
29/04:30am 6.0 5.0 5.4 96 0.3 CALM 0 0 0 0 1022.4 1020.5 0.0
29/04:00am 7.8 6.9 7.7 99 0.0 ESE 2 4 1 2 1022.4 1020.5 0.0
29/03:30am 7.2 6.4 6.5 95 0.3 CALM 0 0 0 0 1022.7 1020.8 0.0
29/03:00am 9.1 8.9 9.0 99 0.1 CALM 0 0 0 0 1022.9 1021.0 0.0
29/02:30am 8.6 8.1 8.0 96 0.3 CALM 0 2 0 1 1023.1 1021.2 0.0
29/02:00am 9.0 8.6 8.4 96 0.3 CALM 0 0 0 0 1023.4 1021.6 0.0
29/01:30am 9.3 9.0 8.7 96 0.3 CALM 0 0 0 0 1023.8 1021.9 0.0
29/01:00am 9.4 8.0 8.9 97 0.3 ESE 6 7 3 4 1024.1 1022.2 0.0
29/12:30am 9.2 8.5 8.7 97 0.3 ESE 2 4 1 2 1024.1 1022.2 0.0
29/12:00am 8.8 8.0 8.2 96 0.3 ESE 2 4 1 2 1024.4 1022.5 0.0
 
Date/Time
EDT
Temp
°C
App
Temp
°C
Dew
Point
Rel
Hum
%
Delta-T
°C
Wind Press
QNH
hPa
Press
MSL
hPa
Rain
since 9 am
mm
Dir
 
Spd
km/h
Gust
km/h
Spd
kts
Gust
kts
28/11:30pm 9.1 8.8 8.6 97 0.3 CALM 0 0 0 0 1024.6 1022.8 0.0
28/11:00pm 8.3 7.8 7.9 97 0.2 CALM 0 0 0 0 1024.7 1022.9 0.0
28/10:30pm 8.4 7.8 7.5 94 0.4 CALM 0 0 0 0 1024.7 1022.9 0.0
28/10:00pm 9.1 8.6 7.9 92 0.6 CALM 0 0 0 0 1024.8 1023.0 0.0
28/09:30pm 10.6 10.4 8.9 89 0.9 CALM 0 0 0 0 1024.9 1023.1 0.0
28/09:00pm 10.7 9.3 8.8 88 1.0 E 6 9 3 5 1024.4 1022.5 0.0
28/08:30pm 11.3 8.2 9.0 86 1.2 E 15 20 8 11 1023.9 1022.0 0.0
28/08:00pm 11.3 8.5 8.7 84 1.3 E 13 17 7 9 1023.5 1021.7 0.0
28/07:30pm 12.2 9.4 8.7 79 1.8 E 13 17 7 9 1023.3 1021.5 0.0
28/07:00pm 13.0 9.4 8.5 74 2.3 E 17 20 9 11 1023.0 1021.1 0.0
28/06:30pm 14.4 10.7 8.1 66 3.3 E 17 24 9 13 1022.8 1020.9 0.0
28/06:00pm 15.6 11.5 7.9 60 4.0 E 19 24 10 13 1022.5 1020.6 0.0
28/05:30pm 16.6 12.3 7.8 56 4.6 E 20 26 11 14 1022.5 1020.6 0.0
28/05:00pm 17.4 13.3 7.7 53 5.0 E 19 26 10 14 1022.5 1020.6 0.0
28/04:30pm 18.2 13.8 7.6 50 5.6 E 20 30 11 16 1022.4 1020.5 0.0
28/04:00pm 19.1 15.2 7.2 46 6.2 E 17 24 9 13 1022.3 1020.4 0.0
28/03:30pm 19.3 15.5 7.4 46 6.2 ESE 17 20 9 11 1022.3 1020.4 0.0
28/03:00pm 19.6 17.1 6.4 42 6.8 NE 9 17 5 9 1022.5 1020.6 0.0
28/02:30pm 19.9 17.2 5.5 39 7.3 N 9 19 5 10 1022.6 1020.7 0.0
28/02:00pm 19.2 16.2 4.2 37 7.4 NNE 9 22 5 12 1023.0 1021.1 0.0
28/01:30pm 19.2 16.5 5.6 41 6.9 NW 9 15 5 8 1023.3 1021.5 0.0
28/01:00pm 19.5 17.5 6.9 44 6.5 SSE 7 11 4 6 1023.6 1021.8 0.0
28/12:30pm 17.6 15.3 4.6 42 6.4 SSE 6 11 3 6 1024.1 1022.2 0.0
28/12:00pm 18.2 15.8 5.4 43 6.4 N 7 13 4 7 1024.4 1022.5 0.0
28/11:30am 17.0 14.6 4.3 43 6.2 ESE 6 13 3 7 1024.4 1022.5 0.0
28/11:00am 16.1 14.9 6.5 53 4.8 NNE 2 6 1 3 1024.5 1022.6 0.0
28/10:30am 14.3 12.7 6.2 58 4.0 N 4 6 2 3 1024.5 1022.6 0.0
28/10:00am 12.2 10.4 5.4 63 3.3 W 4 7 2 4 1024.6 1022.8 0.0
28/09:30am 10.7 9.2 5.0 68 2.7 W 2 6 1 3 1024.5 1022.6 0.0
28/09:00am 9.4 8.0 5.4 76 1.9 W 2 2 1 1 1024.3 1022.4 0.0
28/08:30am 7.1 5.9 4.6 84 1.1 CALM 0 0 0 0 1024.1 1022.2 0.0
28/08:00am 4.7 3.3 3.8 94 0.4 CALM 0 0 0 0 1023.8 1021.9 0.0
28/07:30am 3.6 2.1 3.2 97 0.2 CALM 0 0 0 0 1023.4 1021.6 0.0
28/07:00am 3.1 1.5 2.2 94 0.4 CALM 0 0 0 0 1023.0 1021.1 0.0
28/06:30am 3.2 1.6 2.2 93 0.4 CALM 0 0 0 0 1022.7 1020.8 0.0
28/06:00am 4.0 1.4 3.3 95 0.3 W 6 6 3 3 1022.4 1020.5 0.0
28/05:30am 2.9 1.2 1.9 93 0.4 CALM 0 0 0 0 1022.2 1020.3 0.0
28/05:00am 4.6 3.2 3.6 93 0.4 CALM 0 0 0 0 1021.8 1020.0 0.0
28/04:30am 4.5 2.3 3.3 92 0.5 W 4 6 2 3 1021.6 1019.7 0.0
28/04:00am 4.7 3.3 3.5 92 0.5 CALM 0 6 0 3 1021.7 1019.9 0.0
28/03:30am 4.7 2.2 3.5 92 0.5 W 6 6 3 3 1021.8 1020.0 0.0
28/03:00am 4.6 1.8 3.4 92 0.5 W 7 9 4 5 1022.2 1020.3 0.0
28/02:30am 4.9 3.4 3.1 88 0.8 CALM 0 0 0 0 1022.3 1020.4 0.0
28/02:00am 5.8 4.1 4.1 89 0.7 W 2 4 1 2 1022.3 1020.4 0.0
28/01:30am 5.8 4.0 3.3 84 1.1 W 2 7 1 4 1022.3 1020.4 0.0
28/01:00am 6.6 5.2 3.6 81 1.3 CALM 0 0 0 0 1022.3 1020.4 0.0
28/12:30am 7.8 6.5 4.2 78 1.6 CALM 0 0 0 0 1022.4 1020.5 0.0
28/12:00am 7.9 6.5 3.8 75 1.8 CALM 0 0 0 0 1022.4 1020.5 0.0
 
Date/Time
EDT
Temp
°C
App
Temp
°C
Dew
Point
Rel
Hum
%
Delta-T
°C
Wind Press
QNH
hPa
Press
MSL
hPa
Rain
since 9 am
mm
Dir
 
Spd
km/h
Gust
km/h
Spd
kts
Gust
kts
27/11:30pm 9.5 7.3 3.3 65 2.8 W 4 4 2 2 1022.4 1020.5 0.0
27/11:00pm 10.4 8.7 3.9 64 3.0 W 2 4 1 2 1022.3 1020.4 0.0
27/10:30pm 10.8 8.3 3.8 62 3.2 W 6 11 3 6 1022.1 1020.2 0.0
27/10:00pm 10.9 7.1 3.7 61 3.3 W 13 17 7 9 1021.7 1019.9 0.0
27/09:30pm 11.7 8.2 3.5 57 3.8 W 11 15 6 8 1021.5 1019.6 0.0
27/09:00pm 13.1 7.9 3.7 53 4.4 WNW 20 26 11 14 1020.9 1019.0 0.0
27/08:30pm 13.7 8.5 3.8 51 4.7 W 20 32 11 17 1020.8 1018.9 0.0
27/08:00pm 14.1 8.9 3.6 49 4.9 W 20 30 11 16 1020.2 1018.3 0.0
27/07:30pm 14.8 9.2 3.6 47 5.3 W 22 37 12 20 1019.7 1017.8 0.0
27/07:00pm 15.5 9.1 3.3 44 5.7 WNW 26 37 14 20 1019.3 1017.4 0.0
27/06:30pm 16.5 10.1 3.2 41 6.3 W 26 35 14 19 1018.8 1016.8 0.0
27/06:00pm 17.2 10.1 3.8 41 6.5 WNW 30 41 16 22 1018.7 1016.7 0.0
27/05:30pm 18.0 11.0 3.9 39 6.9 WNW 30 41 16 22 1018.3 1016.4 0.0
27/05:00pm 18.2 10.7 3.3 37 7.2 WNW 32 44 17 24 1018.0 1016.1 0.0
27/04:30pm 18.8 11.1 3.4 36 7.5 WNW 33 48 18 26 1017.7 1015.8 0.0
27/04:00pm 18.9 10.9 3.9 37 7.3 WNW 35 50 19 27 1017.9 1016.0 0.0
27/03:30pm 19.0 11.3 3.6 36 7.5 WNW 33 46 18 25 1018.0 1016.1 0.0
27/03:00pm 18.7 11.0 3.3 36 7.4 WNW 33 50 18 27 1018.1 1016.2 0.0
27/02:35pm 18.1 9.2 2.8 36 7.3 WNW 39 63 21 34 1017.8 1015.9 0.0
27/02:30pm 18.2 9.3 3.3 37 7.2 WNW 39 56 21 30 1018.1 1016.2 0.0
27/02:00pm 18.5 11.9 4.3 39 7.0 W 28 50 15 27 1018.8 1016.8 0.0
27/01:53pm 17.6 10.1 3.5 39 6.8 WNW 32 50 17 27 1018.9 1016.9 0.0
27/01:30pm 17.1 10.4 3.8 41 6.4 WNW 28 44 15 24 1019.4 1017.5 0.0
27/01:06pm 16.7 8.8 4.1 43 6.1 WNW 35 54 19 29 1019.6 1017.7 0.0
27/01:00pm 17.2 9.4 4.9 44 6.1 W 35 50 19 27 1019.7 1017.8 0.0
27/12:30pm 16.7 9.9 5.0 46 5.8 W 30 46 16 25 1020.4 1018.5 0.0
27/12:09pm 16.4 9.4 4.1 44 5.9 W 30 48 16 26 1020.1 1018.2 0.0
27/12:00pm 15.2 7.2 3.7 46 5.4 WNW 35 50 19 27 1020.2 1018.3 0.0
27/11:40am 15.9 9.0 4.6 47 5.5 W 30 50 16 27 1020.2 1018.3 0.0
27/11:30am 14.9 7.3 3.7 47 5.3 WNW 33 46 18 25 1020.2 1018.3 0.0
27/11:00am 14.8 7.4 3.9 48 5.2 W 32 48 17 26 1020.8 1018.9 0.0
27/10:53am 14.7 8.0 3.8 48 5.2 WNW 28 46 15 25 1020.8 1018.9 0.0
27/10:30am 13.6 7.8 4.2 53 4.5 WNW 24 33 13 18 1021.1 1019.2 0.0
27/10:00am 12.6 7.2 4.6 58 3.8 WNW 22 30 12 16 1021.2 1019.3 0.0
27/09:30am 11.1 5.1 3.6 60 3.4 WNW 24 32 13 17 1021.2 1019.3 0.0

Other Formats:

Comma delimited format used in spreadsheet applications
http://www.bom.gov.au/fwo/IDN60801/IDN60801.94943.axf

JavaScript Object Notation format (JSON) in row-major order
http://www.bom.gov.au/fwo/IDN60801/IDN60801.94943.json